Flight Track Log - Related Links

Times and Time Zones

All times are in EDT time to prevent confusion due to time zone crossing. See the FDX760 flight status page for this flight to view local times or setup timezone preferences in your user account.

Time Position Orientation Groundspeed Altitude Reporting Facility
EDT Latitude Longitude Course Direction KTS MPH feet Rate Location/Type
Thu 04:56:39 PM 35.0500 -89.9667 15° North 173 199 1,800  Level KMEM
Thu 04:57:21 PM 35.1000 -89.9500 15° North 252 290 4,200 3,765 Climbing KMEM
Thu 04:58:21 PM 35.1500 -89.9000 39° Northeast 272 313 8,200 4,337 Climbing KMEM
Thu 04:58:44 PM 35.1503 -89.8644 89° East 293 337 10,200 4,120 Climbing Memphis Center
Thu 04:59:44 PM 35.1622 -89.7628 82° East 324 373 13,900 2,800 Climbing Memphis Center
Thu 05:00:44 PM 35.1783 -89.6458 80° East 332 382 15,800 2,050 Climbing Memphis Center
Thu 05:01:44 PM 35.1922 -89.5289 82° East 365 420 18,000 2,950 Climbing Memphis Center
Thu 05:02:44 PM 35.2058 -89.3964 83° East 387 445 21,700 2,500 Climbing Memphis Center
Thu 05:03:44 PM 35.2214 -89.2592 82° East 396 456 23,000 793 Climbing Memphis Center
Thu 05:04:45 PM 35.2453 -89.1239 78° East 407 468 23,300 1,150 Climbing Memphis Center
Thu 05:05:44 PM 35.2833 -88.9758 72° East 437 503 25,300 2,319 Climbing Memphis Center
Thu 05:06:44 PM 35.3292 -88.8047 72° East 466 536 27,900 2,900 Climbing Memphis Center
Thu 05:07:44 PM 35.3750 -88.6408 71° East 491 565 31,100 2,800 Climbing Memphis Center
Thu 05:08:44 PM 35.4269 -88.4817 68° East 491 565 33,500 1,450 Climbing Memphis Center
Thu 05:09:44 PM 35.4850 -88.3222 66° East 496 571 34,000 450 Climbing Memphis Center
Thu 05:10:44 PM 35.5428 -88.1628 66° East 502 578 34,400 1,000 Climbing Memphis Center
Thu 05:11:44 PM 35.5903 -88.0261 67° East 495 570 36,000 1,500 Climbing Memphis Center
Thu 05:12:44 PM 35.6475 -87.8636 67° East 512 589 37,400 1,350 Climbing Memphis Center
Thu 05:13:44 PM 35.7067 -87.6956 67° East 512 589 38,700 800 Climbing Memphis Center
Thu 05:14:44 PM 35.7636 -87.5325 67° East 518 596 39,000 141 Climbing Memphis Center
Thu 05:15:52 PM 35.8360 -87.3300 66° East 525 604 39,000  Level FlightAware ADS-B
Thu 05:16:32 PM 35.8750 -87.2190 67° East 527 606 39,000  Level FlightAware ADS-B
Thu 05:17:17 PM 35.9170 -87.0980 67° East 526 605 39,000  Level FlightAware ADS-B
Thu 05:17:52 PM 35.9539 -86.9905 67° East 525 604 39,000  Level FlightAware ADS-B
Thu 05:18:27 PM 35.9874 -86.8937 67° East 526 605 39,000  Level FlightAware ADS-B
Thu 05:18:58 PM 36.0170 -86.8057 67° East 525 604 39,000  Level FlightAware ADS-B
Thu 05:19:42 PM 36.0582 -86.6869 67° East 525 604 39,000  Level FlightAware ADS-B
Thu 05:20:19 PM 36.0926 -86.5847 67° East 524 603 39,000  Level FlightAware ADS-B
Thu 05:20:52 PM 36.1234 -86.4934 67° East 525 604 39,000  Level FlightAware ADS-B
Thu 05:21:24 PM 36.1537 -86.4047 67° East 526 605 39,000  Level FlightAware ADS-B
Thu 05:21:54 PM 36.1813 -86.3216 68° East 527 606 39,000  Level FlightAware ADS-B
Thu 05:22:30 PM 36.2157 -86.2210 67° East 529 609 39,000  Level FlightAware ADS-B
Thu 05:23:10 PM 36.2524 -86.1090 68° East 529 609 39,000  Level FlightAware ADS-B
Thu 05:23:41 PM 36.2819 -86.0220 67° East 531 611 39,000  Level FlightAware ADS-B
Thu 05:24:13 PM 36.3114 -85.9316 68° East 532 612 39,000  Level FlightAware ADS-B
Thu 05:24:52 PM 36.3486 -85.8188 68° East 533 613 39,000  Level FlightAware ADS-B
Thu 05:25:42 PM 36.3920 -85.6890 67° East 535 616 39,000  Level FlightAware ADS-B
Thu 05:25:46 PM 36.3983 -85.6686 69° East 536 617 39,000  Level FlightAware ADS-B
Thu 05:26:17 PM 36.4276 -85.5805 68° East 536 617 39,000  Level FlightAware ADS-B
Thu 05:26:48 PM 36.4567 -85.4920 68° East 537 618 39,000  Level FlightAware ADS-B
Thu 05:27:31 PM 36.4971 -85.3690 68° East 538 619 39,000  Level FlightAware ADS-B
Thu 05:28:03 PM 36.5263 -85.2775 68° East 538 619 39,000  Level FlightAware ADS-B
Thu 05:28:35 PM 36.5568 -85.1830 68° East 538 619 39,000  Level FlightAware ADS-B
Thu 05:29:06 PM 36.5855 -85.0941 68° East 538 619 39,000  Level FlightAware ADS-B
Thu 05:29:54 PM 36.6292 -84.9590 68° East 539 620 39,000  Level FlightAware ADS-B
Thu 05:30:24 PM 36.6572 -84.8728 68° East 539 620 39,000  Level FlightAware ADS-B
Thu 05:31:02 PM 36.6927 -84.7603 68° East 539 620 39,000  Level FlightAware ADS-B
Thu 05:31:34 PM 36.7217 -84.6707 68° East 541 623 39,000  Level FlightAware ADS-B
Thu 05:32:04 PM 36.7498 -84.5809 69° East 541 623 39,000  Level FlightAware ADS-B
Thu 05:32:35 PM 36.7776 -84.4936 68° East 542 624 39,000  Level FlightAware ADS-B
Thu 05:33:06 PM 36.8057 -84.4037 69° East 542 624 39,000  Level FlightAware ADS-B
Thu 05:33:36 PM 36.8331 -84.3162 69° East 543 625 39,000  Level FlightAware ADS-B
Thu 05:34:07 PM 36.8620 -84.2254 68° East 544 626 39,000  Level FlightAware ADS-B
Thu 05:34:38 PM 36.8903 -84.1350 69° East 544 626 39,000  Level FlightAware ADS-B
Thu 05:35:12 PM 36.9211 -84.0354 69° East 545 627 39,000  Level FlightAware ADS-B
Thu 05:35:44 PM 36.9503 -83.9414 69° East 546 628 39,000  Level FlightAware ADS-B
Thu 05:36:18 PM 36.9818 -83.8385 69° East 546 628 39,000  Level FlightAware ADS-B
Thu 05:36:49 PM 37.0099 -83.7499 68° East 548 631 39,000  Level FlightAware ADS-B
Thu 05:36:57 PM 37.0100 -83.7469 69° East 543 625 39,000  Level Indianapolis Center
Thu 05:37:57 PM 37.0713 -83.5485 69° East 549 632 39,000  Level FlightAware ADS-B
Thu 05:38:27 PM 37.0991 -83.4591 69° East 553 636 39,000  Level FlightAware ADS-B
Thu 05:38:58 PM 37.1272 -83.3664 69° East 554 638 39,000  Level FlightAware ADS-B
Thu 05:39:34 PM 37.1601 -83.2554 70° East 554 638 39,000  Level FlightAware ADS-B
Thu 05:40:10 PM 37.1922 -83.1506 69° East 553 636 39,000  Level FlightAware ADS-B
Thu 05:40:40 PM 37.2193 -83.0608 69° East 552 635 39,000  Level FlightAware ADS-B
Thu 05:41:10 PM 37.2466 -82.9682 70° East 551 634 39,000  Level FlightAware ADS-B
Thu 05:41:46 PM 37.2782 -82.8634 69° East 551 634 39,000 -85 Level FlightAware ADS-B
Thu 05:42:21 PM 37.3090 -82.7587 70° East 549 632 38,900  Descending FlightAware ADS-B
Thu 05:43:01 PM 37.3448 -82.6395 69° East 549 632 39,000  Climbing FlightAware ADS-B
Thu 05:43:09 PM 37.3483 -82.6283 70° East 548 631 38,900  Descending Indianapolis Center
Thu 05:44:11 PM 37.4011 -82.4483 70° East 545 627 39,000 48 Climbing Indianapolis Center
Thu 05:45:13 PM 37.4547 -82.2675 70° East 548 631 39,000  Level Indianapolis Center
Thu 05:46:16 PM 37.5083 -82.0844 70° East 555 639 39,000 41 Level Indianapolis Center
Thu 05:47:41 PM 37.5908 -81.7921 70° East 564 649 39,100  Climbing FlightAware ADS-B
Thu 05:48:13 PM 37.6201 -81.6899 70° East 565 650 39,000 -65 Descending FlightAware ADS-B
Thu 05:49:14 PM 37.6738 -81.5040 70° East 565 650 39,000  Level FlightAware ADS-B
Thu 05:50:24 PM 37.7239 -81.3303 70° East 564 649 39,000 -45 Level Indianapolis Center
Thu 05:51:26 PM 37.7819 -81.1094 72° East 564 649 38,900  Descending Indianapolis Center
Thu 05:52:28 PM 37.7933 -80.9189 86° East 553 636 39,000 48 Climbing Indianapolis Center
Thu 05:53:30 PM 37.8072 -80.7278 85° East 557 641 39,000  Level Indianapolis Center
Thu 05:54:33 PM 37.8206 -80.5000 86° East 556 640 39,000  Level Washington Center
Thu 05:55:33 PM 37.8344 -80.3036 85° East 542 624 39,000  Level Washington Center
Thu 05:56:33 PM 37.8464 -80.1072 86° East 548 631 39,000  Level Washington Center
Thu 05:57:33 PM 37.8572 -79.9289 86° East 559 643 39,000  Level Washington Center
Thu 05:58:33 PM 37.8703 -79.7297 85° East 559 643 39,000  Level Washington Center
Thu 05:59:33 PM 37.8811 -79.5358 85° East 559 643 39,000  Level Washington Center
Thu 06:00:33 PM 37.8917 -79.3364 81° East 564 649 39,000  Level Washington Center
Thu 06:01:33 PM 37.9017 -79.1419 82° East 564 649 39,000  Level Washington Center
Thu 06:02:33 PM 37.9242 -78.9431 60° Northeast 564 649 39,000  Level Washington Center
Thu 06:03:34 PM 37.9483 -78.7464 58° Northeast 564 649 39,000  Level Washington Center
Thu 06:04:37 PM 37.9670 -78.5550 85° East 567 652 39,000  Level FlightAware ADS-B
Thu 06:05:22 PM 37.9860 -78.3980 81° East 567 652 39,000  Level FlightAware ADS-B
Thu 06:05:57 PM 37.9990 -78.2800 82° East 567 652 39,000  Level FlightAware ADS-B
Thu 06:06:37 PM 38.0310 -78.1350 74° East 576 663 39,000  Level FlightAware ADS-B
Thu 06:07:27 PM 38.0980 -77.9860 60° Northeast 578 665 39,000  Level FlightAware ADS-B
Thu 06:08:07 PM 38.1510 -77.8800 58° Northeast 577 664 39,000  Level FlightAware ADS-B
Thu 06:08:52 PM 38.2130 -77.7530 58° Northeast 578 665 39,000  Level FlightAware ADS-B
Thu 06:09:32 PM 38.2740 -77.6320 57° Northeast 579 666 39,000  Level FlightAware ADS-B
Thu 06:10:12 PM 38.3310 -77.5170 58° Northeast 580 667 39,000  Level FlightAware ADS-B
Thu 06:10:52 PM 38.3900 -77.3950 58° Northeast 582 670 39,000  Level FlightAware ADS-B
Thu 06:11:27 PM 38.4260 -77.3220 58° Northeast 582 670 39,000 -353 Level FlightAware ADS-B
Thu 06:12:17 PM 38.5100 -77.1500 58° Northeast 586 674 38,500 -1,832 Descending FlightAware ADS-B
Thu 06:13:02 PM 38.5720 -77.0200 59° Northeast 592 681 36,100 -2,400 Descending FlightAware ADS-B
Thu 06:13:37 PM 38.6220 -76.9190 58° Northeast 568 654 35,300 -2,025 Descending FlightAware ADS-B
Thu 06:14:22 PM 38.6850 -76.7900 58° Northeast 551 634 33,400 -2,600 Descending FlightAware ADS-B
Thu 06:15:07 PM 38.7560 -76.6890 48° Northeast 541 623 31,400 -2,280 Descending FlightAware ADS-B
Thu 06:16:02 PM 38.8570 -76.5700 43° Northeast 528 608 29,600 -2,063 Descending FlightAware ADS-B
Thu 06:16:43 PM 38.9466 -76.4662 42° Northeast 513 590 28,100 -1,973 Descending FlightAware ADS-B
Thu 06:17:15 PM 39.0019 -76.4040 41° Northeast 501 577 27,200 -892 Descending FlightAware ADS-B
Thu 06:17:57 PM 39.0712 -76.3226 42° Northeast 481 554 27,000 -164 Descending FlightAware ADS-B
Thu 06:18:28 PM 39.1225 -76.2631 42° Northeast 481 554 27,000  Level FlightAware ADS-B
Thu 06:18:59 PM 39.1745 -76.2032 42° Northeast 481 554 27,000  Level FlightAware ADS-B
Thu 06:19:29 PM 39.2250 -76.1433 43° Northeast 481 554 27,000  Level FlightAware ADS-B
Thu 06:20:00 PM 39.2757 -76.0834 42° Northeast 480 552 27,000 -1,031 Level FlightAware ADS-B
Thu 06:20:33 PM 39.3305 -76.0191 42° Northeast 483 556 25,900 -1,791 Descending FlightAware ADS-B
Thu 06:21:07 PM 39.3842 -75.9557 42° Northeast 469 540 25,000 -1,569 Descending FlightAware ADS-B
Thu 06:21:38 PM 39.4344 -75.8956 43° Northeast 460 529 24,200 -1,619 Descending FlightAware ADS-B
Thu 06:22:10 PM 39.4823 -75.8388 42° Northeast 449 517 23,300 -1,619 Descending FlightAware ADS-B
Thu 06:22:41 PM 39.5303 -75.7833 42° Northeast 440 506 22,500 -1,524 Descending FlightAware ADS-B
Thu 06:23:13 PM 39.5780 -75.7274 42° Northeast 427 491 21,700 -1,429 Descending FlightAware ADS-B
Thu 06:23:44 PM 39.6227 -75.6744 42° Northeast 418 481 21,000 -1,452 Descending FlightAware ADS-B
Thu 06:24:15 PM 39.6660 -75.6227 43° Northeast 410 472 20,200 -1,594 Descending FlightAware ADS-B
Thu 06:24:48 PM 39.7105 -75.5690 43° Northeast 400 460 19,300 -1,569 Descending FlightAware ADS-B
Thu 06:25:20 PM 39.7530 -75.5164 44° Northeast 393 452 18,500 -1,714 Descending FlightAware ADS-B
Thu 06:25:51 PM 39.7949 -75.4669 42° Northeast 390 449 17,500 -1,839 Descending FlightAware ADS-B
Thu 06:26:22 PM 39.8354 -75.4177 43° Northeast 384 442 16,600 -1,652 Descending FlightAware ADS-B
Thu 06:27:00 PM 39.8837 -75.3594 43° Northeast 371 427 15,600 -1,562 Descending FlightAware ADS-B
Thu 06:27:35 PM 39.9278 -75.3059 43° Northeast 370 426 14,700 -1,477 Descending FlightAware ADS-B
Thu 06:28:05 PM 39.9656 -75.2605 43° Northeast 365 420 14,000 -1,475 Descending FlightAware ADS-B
Thu 06:28:36 PM 40.0038 -75.2144 43° Northeast 359 413 13,200 -1,500 Descending FlightAware ADS-B
Thu 06:29:09 PM 40.0423 -75.1660 44° Northeast 347 399 12,400 -1,406 Descending FlightAware ADS-B
Thu 06:29:40 PM 40.0793 -75.1209 43° Northeast 335 386 11,700 -1,355 Descending FlightAware ADS-B
Thu 06:30:11 PM 40.1138 -75.0805 42° Northeast 325 374 11,000 -1,279 Descending FlightAware ADS-B
Thu 06:30:41 PM 40.1452 -75.0402 44° Northeast 314 361 10,400 -1,224 Descending FlightAware ADS-B
Thu 06:31:00 PM 40.1660 -75.0142 44° Northeast 307 353 10,000 -1,200 Descending FlightAware ADS-B
Thu 06:31:16 PM 40.1815 -74.9954 43° Northeast 301 346 9,700 -968 Descending FlightAware ADS-B
Thu 06:31:31 PM 40.1970 -74.9768 43° Northeast 299 344 9,500 -968 Descending FlightAware ADS-B
Thu 06:31:47 PM 40.2134 -74.9570 43° Northeast 300 345 9,200 -1,091 Descending FlightAware ADS-B
Thu 06:32:04 PM 40.2310 -74.9362 42° Northeast 300 345 8,900 -1,241 Descending FlightAware ADS-B
Thu 06:32:16 PM 40.2428 -74.9215 44° Northeast 299 344 8,600 -1,091 Descending FlightAware ADS-B
Thu 06:32:26 PM 40.2528 -74.9090 44° Northeast 298 343 8,500 -900 Descending FlightAware ADS-B
Thu 06:32:36 PM 40.2627 -74.8960 45° Northeast 299 344 8,300 -1,200 Descending FlightAware ADS-B
Thu 06:32:51 PM 40.2763 -74.8758 49° Northeast 298 343 8,000 -968 Descending FlightAware ADS-B
Thu 06:33:07 PM 40.2921 -74.8528 48° Northeast 298 343 7,800 -563 Descending FlightAware ADS-B
Thu 06:33:23 PM 40.3065 -74.8328 47° Northeast 299 344 7,700 -774 Descending FlightAware ADS-B
Thu 06:33:38 PM 40.3207 -74.8129 47° Northeast 296 341 7,400 -1,161 Descending FlightAware ADS-B
Thu 06:33:54 PM 40.3350 -74.7920 48° Northeast 294 338 7,100 -938 Descending FlightAware ADS-B
Thu 06:34:10 PM 40.3501 -74.7711 47° Northeast 294 338 6,900 -938 Descending FlightAware ADS-B
Thu 06:34:26 PM 40.3650 -74.7504 47° Northeast 291 335 6,600 -1,034 Descending FlightAware ADS-B
Thu 06:34:39 PM 40.3779 -74.7325 47° Northeast 291 335 6,400 -1,000 Descending FlightAware ADS-B
Thu 06:34:56 PM 40.3932 -74.7121 45° Northeast 293 337 6,100 -1,029 Descending FlightAware ADS-B
Thu 06:35:14 PM 40.4106 -74.6875 47° Northeast 291 335 5,800 -720 Descending FlightAware ADS-B
Thu 06:35:21 PM 40.4175 -74.6793 42° Northeast 291 335 5,800  Level FlightAware ADS-B
Thu 06:35:25 PM 40.4220 -74.6753 34° Northeast 289 333 5,800  Level FlightAware ADS-B
Thu 06:35:30 PM 40.4266 -74.6718 30° Northeast 288 331 5,800  Level FlightAware ADS-B
Thu 06:35:34 PM 40.4320 -74.6688 23° Northeast 286 329 5,800  Level FlightAware ADS-B
Thu 06:35:39 PM 40.4389 -74.6655 20° North 284 327 5,800  Level FlightAware ADS-B
Thu 06:35:45 PM 40.4457 -74.6636 12° North 282 325 5,800  Level FlightAware ADS-B
Thu 06:36:01 PM 40.4673 -74.6592 North 282 325 5,800  Level FlightAware ADS-B
Thu 06:36:18 PM 40.4887 -74.6539 11° North 282 325 5,800  Level FlightAware ADS-B
Thu 06:36:42 PM 40.5189 -74.6443 14° North 284 327 5,800  Level FlightAware ADS-B
Thu 06:36:57 PM 40.5381 -74.6386 13° North 282 325 5,800  Level FlightAware ADS-B
Thu 06:37:29 PM 40.5789 -74.6276 12° North 282 325 5,800  Level FlightAware ADS-B
Thu 06:37:56 PM 40.6139 -74.6184 11° North 281 323 5,800  Level FlightAware ADS-B
Thu 06:38:16 PM 40.6391 -74.6116 12° North 283 326 5,800  Level FlightAware ADS-B
Thu 06:38:32 PM 40.6598 -74.6060 12° North 285 328 5,800  Level FlightAware ADS-B
Thu 06:38:56 PM 40.6905 -74.5979 11° North 284 327 5,800  Level FlightAware ADS-B
Thu 06:39:27 PM 40.7290 -74.5880 11° North 283 326 5,800  Level FlightAware ADS-B
Thu 06:39:35 PM 40.7411 -74.5843 13° North 285 328 5,800  Level FlightAware ADS-B
Thu 06:39:53 PM 40.7627 -74.5784 12° North 267 307 5,800  Level FlightAware ADS-B
Thu 06:40:16 PM 40.7901 -74.5713 11° North 256 295 5,800  Level FlightAware ADS-B
Thu 06:40:47 PM 40.8220 -74.5630 11° North 245 282 5,800 -143 Level FlightAware ADS-B
Thu 06:40:58 PM 40.8373 -74.5583 13° North 245 282 5,700 -577 Descending FlightAware ADS-B
Thu 06:41:39 PM 40.8800 -74.5457 13° North 224 258 5,300 -724 Descending FlightAware ADS-B
Thu 06:41:56 PM 40.8980 -74.5432 North 217 250 5,000 -476 Descending FlightAware ADS-B
Thu 06:42:42 PM 40.9390 -74.5270 17° North 221 254 4,800 -182 Descending FlightAware ADS-B
Thu 06:43:02 PM 40.9490 -74.5080 55° Northeast 222 255 4,800  Level FlightAware ADS-B
Thu 06:43:27 PM 40.9630 -74.4810 56° Northeast 222 255 4,800 214 Level FlightAware ADS-B
Thu 06:43:58 PM 41.0000 -74.4667 56° Northeast 221 254 5,000 132 Climbing New York TRACON
Thu 06:44:58 PM 41.0500 -74.4333 27° Northeast 217 250 5,000  Level New York TRACON
Thu 06:45:58 PM 41.0833 -74.3667 27° Northeast 225 259 5,000  Level New York TRACON
Thu 06:46:58 PM 41.1000 -74.2833 182° South 221 254 5,000 -50 Level New York TRACON
Thu 06:47:58 PM 41.0833 -74.2167 210° Southwest 215 247 4,900 -500 Descending New York TRACON
Thu 06:48:58 PM 41.0333 -74.1667 203° Southwest 202 232 4,000 -379 Descending New York TRACON
Thu 06:50:52 PM 40.9490 -74.0960 27° Northeast 192 221 3,800 -78 Descending FlightAware ADS-B
Thu 06:51:32 PM 40.9190 -74.0790 157° South 190 219 3,800 -771 Level FlightAware ADS-B
Thu 06:52:02 PM 40.8930 -74.0800 182° South 182 209 2,900 -1,091 Descending FlightAware ADS-B
Thu 06:52:27 PM 40.8740 -74.0760 171° South 168 193 2,800 -136 Descending FlightAware ADS-B
Thu 06:52:46 PM 40.8554 -74.0733 174° South 170 196 2,800  Level FlightAware ADS-B
Thu 06:53:03 PM 40.8417 -74.0709 172° South 172 198 2,800  Level FlightAware ADS-B
Thu 06:53:15 PM 40.8322 -74.0695 174° South 171 197 2,800  Level FlightAware ADS-B
Thu 06:53:19 PM 40.8290 -74.0704 192° South 169 194 2,800  Level FlightAware ADS-B
Thu 06:53:24 PM 40.8258 -74.0728 210° Southwest 167 192 2,800 -400 Level FlightAware ADS-B
Thu 06:53:34 PM 40.8204 -74.0798 224° Southwest 165 190 2,700 -923 Descending FlightAware ADS-B
Thu 06:53:37 PM 40.8186 -74.0819 221° Southwest 165 190 2,600 -1,500 Descending FlightAware ADS-B
Thu 06:53:42 PM 40.8155 -74.0858 224° Southwest 165 190 2,500 -1,091 Descending FlightAware ADS-B
Thu 06:53:48 PM 40.8120 -74.0886 211° Southwest 166 191 2,400 -1,034 Descending FlightAware ADS-B
Thu 06:54:11 PM 40.7966 -74.0992 208° Southwest 165 190 2,000 -1,000 Descending FlightAware ADS-B
Thu 06:54:24 PM 40.7871 -74.1044 203° Southwest 165 190 1,800 -857 Descending FlightAware ADS-B
Thu 06:54:39 PM 40.7766 -74.1110 205° Southwest 165 190 1,600 -774 Descending FlightAware ADS-B
Thu 06:54:55 PM 40.7655 -74.1180 206° Southwest 165 190 1,400 -968 Descending FlightAware ADS-B
Thu 06:55:10 PM 40.7556 -74.1243 206° Southwest 151 174 1,100 -938 Descending FlightAware ADS-B
Thu 06:55:27 PM 40.7459 -74.1307 207° Southwest 129 148 900 -727 Descending FlightAware ADS-B
Thu 06:55:43 PM 40.7371 -74.1365 207° Southwest 127 146 700 -194 Descending FlightAware ADS-B
Thu 06:55:58 PM 40.7333 -74.1333 206° Southwest 129 148 800 400 Climbing New York TRACON

Login

Don't have an account? Register now (free) for customized features, flight alerts, and more!